Time;durP1;ratioP1;P1;durP2;ratioP2;P2;SDS_P1;SDS_P2;PMS_P1;PMS_P2;Temp;Humidity;BMP_temperature;BMP_pressure;BME280_temperature;BME280_humidity;BME280_pressure;Samples;Min_cycle;Max_cycle;Signal;HPM_P1;HPM_P2
2022/12/12 00:01:30;;;;;;;10.10;6.55;;;;;;;;;;5001414;28;20413;-65
2022/12/12 00:03:57;;;;;;;8.80;6.63;;;;;;;;;;4981619;28;20057;-67
2022/12/12 00:06:25;;;;;;;10.65;7.38;;;;;;;;;;5001867;28;20137;-66
2022/12/12 00:08:51;;;;;;;11.02;6.55;;;;;;;;;;5003294;28;20056;-65
2022/12/12 00:11:18;;;;;;;9.55;6.82;;;;;;;;;;5003997;28;20034;-67
2022/12/12 00:13:44;;;;;;;10.68;6.57;;;;;;;;;;5001686;28;20045;-66
2022/12/12 00:16:11;;;;;;;10.90;7.03;;;;;;;;;;5001761;28;20046;-66
2022/12/12 00:18:38;;;;;;;9.90;6.50;;;;;;;;;;5004581;28;20664;-67
2022/12/12 00:21:12;;;;;;;11.05;7.18;;;;;;;;;;4993809;28;20053;-68
2022/12/12 00:23:38;;;;;;;8.77;7.05;;;;;;;;;;4993558;28;20046;-72
2022/12/12 00:26:07;;;;;;;12.02;7.07;;;;;;;;;;5000037;28;20077;-67
2022/12/12 00:28:33;;;;;;;9.85;7.28;;;;;;;;;;5001400;28;20041;-66
2022/12/12 00:30:59;;;;;;;10.73;7.50;;;;;;;;;;4999686;28;20053;-65
2022/12/12 00:33:25;;;;;;;9.43;7.28;;;;;;;;;;4996831;28;20058;-68
2022/12/12 00:35:53;;;;;;;7.97;7.15;;;;;;;;;;5000901;28;20504;-66
2022/12/12 00:38:22;;;;;;;10.20;7.45;;;;;;;;;;5002343;28;20053;-67
2022/12/12 00:40:49;;;;;;;11.13;7.10;;;;;;;;;;4993220;28;20088;-68
2022/12/12 00:43:15;;;;;;;12.00;6.82;;;;;;;;;;5001152;28;20061;-67
2022/12/12 00:45:41;;;;;;;8.30;7.18;;;;;;;;;;4997567;28;20054;-66
2022/12/12 00:48:08;;;;;;;10.32;7.40;;;;;;;;;;4997996;28;20042;-64
2022/12/12 00:50:35;;;;;;;11.25;6.47;;;;;;;;;;5003549;28;20053;-67
2022/12/12 00:53:01;;;;;;;8.65;6.32;;;;;;;;;;5001346;28;20053;-64
2022/12/12 00:55:27;;;;;;;8.73;6.43;;;;;;;;;;5001150;28;20460;-68
2022/12/12 00:57:53;;;;;;;11.18;6.32;;;;;;;;;;5004620;28;20073;-66
2022/12/12 01:00:20;;;;;;;8.57;6.45;;;;;;;;;;4998781;28;20050;-65
2022/12/12 01:02:47;;;;;;;9.10;6.47;;;;;;;;;;5002534;28;20809;-66
2022/12/12 01:05:13;;;;;;;8.98;6.65;;;;;;;;;;4992993;28;20041;-64
2022/12/12 01:07:40;;;;;;;11.73;6.47;;;;;;;;;;4997486;28;20068;-66
2022/12/12 01:10:07;;;;;;;7.07;6.38;;;;;;;;;;4997485;28;20055;-68
2022/12/12 01:12:33;;;;;;;9.45;6.30;;;;;;;;;;4997094;28;20041;-70
2022/12/12 01:14:59;;;;;;;7.63;6.25;;;;;;;;;;5001223;28;20103;-69
2022/12/12 01:17:25;;;;;;;10.60;6.75;;;;;;;;;;4997048;28;20065;-64
2022/12/12 01:19:52;;;;;;;9.95;6.35;;;;;;;;;;4998251;28;20065;-66
2022/12/12 01:22:18;;;;;;;10.93;6.18;;;;;;;;;;4995048;28;20050;-65
2022/12/12 01:24:44;;;;;;;8.70;6.70;;;;;;;;;;5001473;28;20065;-69
2022/12/12 01:27:10;;;;;;;12.15;6.53;;;;;;;;;;5002289;28;20501;-68
2022/12/12 01:29:36;;;;;;;8.88;6.07;;;;;;;;;;5009122;28;20291;-67
2022/12/12 01:32:02;;;;;;;9.65;6.28;;;;;;;;;;5000419;28;20054;-65
2022/12/12 01:34:28;;;;;;;8.57;6.10;;;;;;;;;;5001674;28;20045;-65
2022/12/12 01:36:54;;;;;;;13.18;6.20;;;;;;;;;;5007736;28;20054;-66
2022/12/12 01:39:20;;;;;;;9.00;5.90;;;;;;;;;;5002472;28;20048;-66
2022/12/12 01:41:47;;;;;;;9.55;6.30;;;;;;;;;;5001758;28;20058;-65
2022/12/12 01:44:43;;;;;;;8.30;5.88;;;;;;;;;;5000897;28;20057;-67
2022/12/12 01:47:12;;;;;;;8.80;5.70;;;;;;;;;;4994998;28;20050;-66
2022/12/12 01:49:41;;;;;;;10.27;6.05;;;;;;;;;;4998116;28;20168;-66
2022/12/12 01:52:14;;;;;;;9.77;6.25;;;;;;;;;;4998497;28;20509;-71
2022/12/12 01:54:45;;;;;;;11.70;6.10;;;;;;;;;;4991848;28;20058;-67
2022/12/12 01:57:48;;;;;;;8.38;5.80;;;;;;;;;;4999425;28;20046;-65
2022/12/12 02:00:14;;;;;;;9.77;5.65;;;;;;;;;;4998838;28;20132;-68
2022/12/12 02:02:44;;;;;;;14.45;5.90;;;;;;;;;;5001540;28;20050;-64
2022/12/12 02:05:33;;;;;;;12.93;6.18;;;;;;;;;;4998690;28;20039;-64
2022/12/12 02:08:01;;;;;;;9.65;6.00;;;;;;;;;;5005001;28;20088;-67
2022/12/12 02:10:27;;;;;;;8.90;6.25;;;;;;;;;;4994986;28;20054;-65
2022/12/12 02:13:02;;;;;;;13.27;5.95;;;;;;;;;;4995050;28;20441;-67
2022/12/12 02:15:38;;;;;;;8.90;6.05;;;;;;;;;;4979260;28;20108;-68
2022/12/12 02:18:12;;;;;;;9.45;6.10;;;;;;;;;;4980327;28;20124;-66
2022/12/12 02:20:38;;;;;;;14.65;5.93;;;;;;;;;;5000245;28;20046;-65
2022/12/12 02:23:19;;;;;;;8.73;6.10;;;;;;;;;;4994170;28;21613;-64
2022/12/12 02:26:03;;;;;;;8.82;6.28;;;;;;;;;;4993767;28;20139;-67
2022/12/12 02:28:48;;;;;;;10.93;5.97;;;;;;;;;;4995291;28;20049;-66
2022/12/12 02:31:47;;;;;;;9.50;6.32;;;;;;;;;;4998026;28;20180;-65
2022/12/12 02:34:23;;;;;;;8.80;6.13;;;;;;;;;;4996491;28;20069;-65
2022/12/12 02:37:20;;;;;;;9.65;6.55;;;;;;;;;;4997870;28;20319;-67
2022/12/12 02:40:13;;;;;;;11.35;7.10;;;;;;;;;;5002353;28;20130;-66
2022/12/12 02:42:41;;;;;;;10.93;7.18;;;;;;;;;;4994780;28;20066;-67
2022/12/12 02:45:43;;;;;;;11.63;7.05;;;;;;;;;;4968713;28;20057;-65
2022/12/12 02:48:27;;;;;;;9.02;7.10;;;;;;;;;;4997981;28;20413;-66
2022/12/12 02:50:56;;;;;;;20.50;10.55;;;;;;;;;;4996142;28;20054;-65
2022/12/12 02:53:22;;;;;;;14.48;9.43;;;;;;;;;;4997837;28;20445;-68
2022/12/12 02:55:59;;;;;;;11.90;8.15;;;;;;;;;;4998980;28;20831;-68
2022/12/12 02:58:26;;;;;;;11.88;8.73;;;;;;;;;;4999600;28;20046;-66
2022/12/12 03:01:10;;;;;;;12.23;8.63;;;;;;;;;;4995845;28;20398;-68
2022/12/12 03:10:03;;;;;;;12.40;8.60;;;;;;;;;;5002699;28;20756;-65
2022/12/12 03:12:35;;;;;;;14.07;9.35;;;;;;;;;;5006090;28;20068;-67
2022/12/12 03:15:25;;;;;;;13.07;9.73;;;;;;;;;;5000829;28;20042;-67
2022/12/12 03:18:05;;;;;;;15.77;9.63;;;;;;;;;;5000617;28;20133;-66
2022/12/12 03:20:49;;;;;;;14.60;10.25;;;;;;;;;;5000916;28;20151;-66
2022/12/12 03:23:20;;;;;;;15.77;10.80;;;;;;;;;;4999502;28;20411;-65
2022/12/12 03:26:27;;;;;;;15.32;10.52;;;;;;;;;;5006835;28;20104;-67
2022/12/12 03:29:02;;;;;;;13.73;10.13;;;;;;;;;;4961942;28;20181;-67
2022/12/12 03:31:31;;;;;;;13.85;10.57;;;;;;;;;;4956444;28;20047;-69
2022/12/12 03:34:03;;;;;;;14.85;10.27;;;;;;;;;;4960716;28;20062;-66
2022/12/12 03:36:46;;;;;;;15.10;9.98;;;;;;;;;;4964383;28;20096;-65
2022/12/12 03:39:24;;;;;;;17.75;10.40;;;;;;;;;;4964417;28;20538;-66
2022/12/12 03:42:00;;;;;;;15.38;10.35;;;;;;;;;;4955587;28;20046;-66
2022/12/12 03:44:36;;;;;;;15.80;11.32;;;;;;;;;;4955090;28;20465;-66
2022/12/12 03:47:16;;;;;;;14.10;10.38;;;;;;;;;;4954616;28;20226;-65
2022/12/12 03:49:49;;;;;;;16.55;10.30;;;;;;;;;;4958822;28;20562;-66
2022/12/12 03:52:29;;;;;;;13.13;10.13;;;;;;;;;;4956949;28;20053;-66
2022/12/12 03:55:03;;;;;;;15.75;10.63;;;;;;;;;;4960350;28;20062;-64
2022/12/12 03:57:39;;;;;;;12.45;9.65;;;;;;;;;;4962893;28;20043;-66
2022/12/12 04:00:08;;;;;;;15.48;11.55;;;;;;;;;;4949144;28;20046;-65
2022/12/12 04:02:50;;;;;;;11.98;9.73;;;;;;;;;;4976452;28;20054;-65
2022/12/12 04:05:22;;;;;;;14.93;10.15;;;;;;;;;;5006531;28;20794;-66
2022/12/12 04:07:58;;;;;;;14.82;11.40;;;;;;;;;;5006287;28;20088;-69
2022/12/12 04:13:36;;;;;;;12.00;9.88;;;;;;;;;;5003298;28;20045;-65
2022/12/12 04:16:13;;;;;;;13.68;10.10;;;;;;;;;;4985155;28;20042;-66
2022/12/12 04:19:10;;;;;;;10.77;8.88;;;;;;;;;;4996634;28;20050;-66
2022/12/12 04:24:35;;;;;;;13.07;9.50;;;;;;;;;;4994092;28;20831;-67
2022/12/12 04:27:18;;;;;;;15.27;9.88;;;;;;;;;;4998223;28;20049;-68
2022/12/12 04:29:52;;;;;;;15.20;10.27;;;;;;;;;;4999343;28;20042;-65
2022/12/12 04:32:34;;;;;;;13.20;9.80;;;;;;;;;;5001753;28;20143;-69
2022/12/12 04:35:05;;;;;;;13.35;9.63;;;;;;;;;;5003873;28;20512;-67
2022/12/12 04:37:43;;;;;;;13.20;10.38;;;;;;;;;;5003365;28;20042;-65
2022/12/12 04:40:14;;;;;;;15.85;10.82;;;;;;;;;;4999443;28;20053;-66
2022/12/12 04:42:49;;;;;;;18.52;10.35;;;;;;;;;;4993230;28;20072;-63
2022/12/12 04:45:19;;;;;;;13.40;9.93;;;;;;;;;;5000066;28;20042;-67
2022/12/12 04:47:48;;;;;;;13.88;10.93;;;;;;;;;;5003372;28;20054;-64
2022/12/12 04:50:16;;;;;;;13.25;10.45;;;;;;;;;;5004398;28;20461;-64
2022/12/12 04:52:44;;;;;;;16.85;10.70;;;;;;;;;;4998818;28;20066;-64
2022/12/12 04:55:24;;;;;;;19.38;10.85;;;;;;;;;;4999568;28;20107;-67
2022/12/12 04:57:53;;;;;;;15.88;10.82;;;;;;;;;;5001999;28;20046;-65
2022/12/12 05:00:21;;;;;;;15.18;10.30;;;;;;;;;;5001394;28;20046;-66
2022/12/12 05:03:00;;;;;;;15.95;10.65;;;;;;;;;;5000381;28;20045;-64
2022/12/12 05:05:52;;;;;;;15.88;11.88;;;;;;;;;;4995480;28;20056;-66
2022/12/12 05:08:24;;;;;;;16.30;12.13;;;;;;;;;;4997994;28;20061;-65
2022/12/12 05:10:54;;;;;;;17.80;11.38;;;;;;;;;;4999196;28;20096;-66
2022/12/12 05:13:26;;;;;;;18.33;11.07;;;;;;;;;;4998533;28;20054;-65
2022/12/12 05:15:54;;;;;;;15.48;11.30;;;;;;;;;;4996764;28;20192;-64
2022/12/12 05:18:21;;;;;;;19.73;11.82;;;;;;;;;;4996034;28;20049;-68
2022/12/12 05:20:48;;;;;;;16.23;12.48;;;;;;;;;;5003477;28;20052;-68
2022/12/12 05:23:14;;;;;;;18.88;11.75;;;;;;;;;;5001524;28;20046;-67
2022/12/12 05:25:40;;;;;;;16.30;11.98;;;;;;;;;;5002759;28;20058;-65
2022/12/12 05:28:07;;;;;;;17.20;11.40;;;;;;;;;;4999094;28;20527;-63
2022/12/12 05:30:32;;;;;;;18.63;12.05;;;;;;;;;;5004045;28;20046;-66
2022/12/12 05:32:59;;;;;;;19.48;12.35;;;;;;;;;;4981432;28;20064;-67
2022/12/12 05:35:25;;;;;;;16.35;11.65;;;;;;;;;;5002001;28;20049;-67
2022/12/12 05:37:51;;;;;;;21.15;11.70;;;;;;;;;;4984899;28;20076;-67
2022/12/12 05:40:18;;;;;;;18.80;11.88;;;;;;;;;;4996784;28;20077;-67
2022/12/12 05:42:44;;;;;;;20.55;12.52;;;;;;;;;;4993947;28;20053;-64
2022/12/12 05:45:10;;;;;;;19.00;12.50;;;;;;;;;;5004482;28;20038;-66
2022/12/12 05:47:37;;;;;;;17.25;12.20;;;;;;;;;;4979512;28;20066;-66
2022/12/12 05:50:04;;;;;;;18.83;12.52;;;;;;;;;;4999882;28;20068;-66
2022/12/12 05:52:30;;;;;;;16.25;11.63;;;;;;;;;;4994099;28;20054;-65
2022/12/12 05:54:56;;;;;;;19.27;12.15;;;;;;;;;;4984891;28;20116;-66
2022/12/12 05:57:22;;;;;;;21.33;12.60;;;;;;;;;;5001852;28;20046;-65
2022/12/12 05:59:47;;;;;;;17.42;12.88;;;;;;;;;;4997307;28;20137;-67
2022/12/12 06:02:14;;;;;;;18.95;11.93;;;;;;;;;;4998111;28;20073;-68
2022/12/12 06:04:41;;;;;;;19.63;12.40;;;;;;;;;;5005057;28;20050;-68
2022/12/12 06:07:07;;;;;;;18.25;11.75;;;;;;;;;;4999312;28;20065;-65
2022/12/12 06:09:33;;;;;;;21.27;11.60;;;;;;;;;;4998121;28;20045;-67
2022/12/12 06:11:59;;;;;;;17.88;12.02;;;;;;;;;;5000463;28;20472;-71
2022/12/12 06:14:25;;;;;;;20.67;12.75;;;;;;;;;;5001913;28;20046;-67
2022/12/12 06:16:52;;;;;;;18.42;11.95;;;;;;;;;;5003332;28;20057;-70
2022/12/12 06:19:18;;;;;;;20.77;12.85;;;;;;;;;;5003608;28;20050;-66
2022/12/12 06:21:45;;;;;;;17.13;11.48;;;;;;;;;;4994371;28;20049;-67
2022/12/12 06:24:12;;;;;;;16.15;12.18;;;;;;;;;;4995781;28;20101;-67
2022/12/12 06:26:38;;;;;;;19.58;11.35;;;;;;;;;;5001292;28;20050;-66
2022/12/12 06:29:04;;;;;;;21.98;12.27;;;;;;;;;;4996612;28;20488;-65
2022/12/12 06:31:30;;;;;;;19.50;11.82;;;;;;;;;;4998030;28;20042;-64
2022/12/12 06:33:56;;;;;;;22.52;12.48;;;;;;;;;;4979896;28;20172;-62
2022/12/12 06:36:24;;;;;;;20.20;11.65;;;;;;;;;;5003160;28;20042;-65
2022/12/12 06:38:51;;;;;;;20.58;12.18;;;;;;;;;;5001938;28;20069;-66
2022/12/12 06:41:18;;;;;;;17.15;11.40;;;;;;;;;;4999777;28;20050;-67
2022/12/12 06:43:44;;;;;;;17.40;11.45;;;;;;;;;;5008203;28;20496;-66
2022/12/12 06:46:17;;;;;;;15.13;11.55;;;;;;;;;;5007957;28;20084;-65
2022/12/12 06:48:43;;;;;;;16.52;11.05;;;;;;;;;;5003063;28;20050;-66
2022/12/12 06:51:15;;;;;;;16.90;10.85;;;;;;;;;;5002631;28;20053;-65
2022/12/12 06:53:43;;;;;;;15.90;10.63;;;;;;;;;;4998324;28;20068;-69
2022/12/12 06:56:13;;;;;;;17.50;11.05;;;;;;;;;;5003669;28;20046;-72
2022/12/12 06:58:39;;;;;;;16.90;10.77;;;;;;;;;;5001413;28;20516;-63
2022/12/12 07:01:06;;;;;;;14.82;11.45;;;;;;;;;;4980620;28;20056;-68
2022/12/12 07:03:33;;;;;;;17.23;11.73;;;;;;;;;;5000011;28;20132;-64
2022/12/12 07:06:00;;;;;;;16.48;11.02;;;;;;;;;;5002119;28;20042;-65
2022/12/12 07:08:27;;;;;;;16.08;11.27;;;;;;;;;;4996749;28;20133;-64
2022/12/12 07:10:54;;;;;;;19.85;12.23;;;;;;;;;;5004953;28;20084;-70
2022/12/12 07:13:20;;;;;;;20.98;12.07;;;;;;;;;;5002088;28;20580;-64
2022/12/12 07:15:48;;;;;;;21.13;12.43;;;;;;;;;;4999181;28;20120;-67
2022/12/12 07:18:16;;;;;;;21.88;12.35;;;;;;;;;;4998529;28;20054;-64
2022/12/12 07:20:45;;;;;;;18.63;11.88;;;;;;;;;;4996860;28;20113;-71
2022/12/12 07:23:11;;;;;;;21.63;13.32;;;;;;;;;;4996623;28;20050;-65
2022/12/12 07:25:39;;;;;;;20.23;12.85;;;;;;;;;;5001266;28;20045;-65
2022/12/12 07:28:06;;;;;;;18.83;12.25;;;;;;;;;;4997781;28;21364;-64
2022/12/12 07:30:32;;;;;;;21.38;13.88;;;;;;;;;;4980227;28;20120;-63
2022/12/12 07:32:59;;;;;;;25.08;15.02;;;;;;;;;;5000372;28;20489;-63
2022/12/12 07:35:25;;;;;;;22.58;12.15;;;;;;;;;;4993570;28;20068;-63
2022/12/12 07:37:51;;;;;;;24.15;13.55;;;;;;;;;;4995505;28;20045;-64
2022/12/12 07:40:17;;;;;;;30.77;14.18;;;;;;;;;;5002567;28;20049;-70
2022/12/12 07:42:43;;;;;;;24.58;12.73;;;;;;;;;;4998977;28;20058;-62
2022/12/12 07:45:09;;;;;;;22.30;12.75;;;;;;;;;;5000169;28;20060;-65
2022/12/12 07:47:35;;;;;;;24.35;13.98;;;;;;;;;;4987550;28;20577;-65
2022/12/12 07:50:01;;;;;;;20.08;13.57;;;;;;;;;;5001503;28;20177;-62
2022/12/12 07:52:27;;;;;;;27.42;13.45;;;;;;;;;;5002383;28;20136;-62
2022/12/12 07:54:53;;;;;;;23.50;14.68;;;;;;;;;;5006807;28;20038;-67
2022/12/12 07:57:18;;;;;;;22.33;13.48;;;;;;;;;;5004469;28;20048;-63
2022/12/12 07:59:44;;;;;;;23.10;13.68;;;;;;;;;;4998867;28;20052;-63
2022/12/12 08:02:10;;;;;;;26.33;13.57;;;;;;;;;;4998695;28;20125;-62
2022/12/12 08:04:37;;;;;;;23.40;13.52;;;;;;;;;;4979320;28;20052;-64
2022/12/12 08:07:03;;;;;;;23.00;13.40;;;;;;;;;;4995089;28;20077;-64
2022/12/12 08:09:29;;;;;;;26.20;14.15;;;;;;;;;;4983642;28;20104;-61
2022/12/12 08:11:57;;;;;;;21.20;13.32;;;;;;;;;;4998098;28;20062;-63
2022/12/12 08:14:24;;;;;;;26.90;13.43;;;;;;;;;;4999596;28;20050;-63
2022/12/12 08:16:51;;;;;;;31.50;15.65;;;;;;;;;;4964304;28;20050;-64
2022/12/12 08:19:18;;;;;;;25.17;13.25;;;;;;;;;;4993891;28;20049;-69
2022/12/12 08:21:44;;;;;;;24.23;13.45;;;;;;;;;;5000084;28;20045;-64
2022/12/12 08:24:13;;;;;;;21.15;13.57;;;;;;;;;;4997577;28;20078;-67
2022/12/12 08:26:39;;;;;;;35.30;15.50;;;;;;;;;;4990284;28;20092;-65
2022/12/12 08:29:05;;;;;;;26.40;13.52;;;;;;;;;;4998769;28;20057;-63
2022/12/12 08:31:31;;;;;;;28.40;14.65;;;;;;;;;;4997104;28;20038;-64
2022/12/12 08:33:58;;;;;;;24.45;13.95;;;;;;;;;;4974852;28;20046;-63
2022/12/12 08:36:29;;;;;;;23.60;12.98;;;;;;;;;;4973084;28;20101;-64
2022/12/12 08:38:57;;;;;;;28.42;13.80;;;;;;;;;;4975180;28;20050;-63
2022/12/12 08:41:24;;;;;;;27.08;12.43;;;;;;;;;;4972860;28;20056;-70
2022/12/12 08:43:50;;;;;;;30.80;14.30;;;;;;;;;;4959132;28;20070;-63
2022/12/12 08:46:17;;;;;;;29.58;14.23;;;;;;;;;;4982887;28;20069;-66
2022/12/12 08:48:43;;;;;;;30.92;14.15;;;;;;;;;;4981399;28;20062;-63
2022/12/12 08:51:09;;;;;;;22.92;13.57;;;;;;;;;;4972813;28;20289;-64
2022/12/12 08:53:35;;;;;;;24.60;13.50;;;;;;;;;;4978759;28;20054;-62
2022/12/12 08:56:01;;;;;;;31.45;13.45;;;;;;;;;;4974729;28;20052;-62
2022/12/12 08:58:27;;;;;;;23.67;13.15;;;;;;;;;;4979890;28;20048;-63
2022/12/12 09:00:55;;;;;;;29.92;12.93;;;;;;;;;;4976414;28;20050;-62
2022/12/12 09:03:21;;;;;;;30.42;13.23;;;;;;;;;;4971095;28;20267;-62
2022/12/12 09:05:47;;;;;;;23.33;13.75;;;;;;;;;;4981020;28;20442;-67
2022/12/12 09:08:13;;;;;;;24.23;12.43;;;;;;;;;;4979210;28;20226;-68
2022/12/12 09:10:41;;;;;;;23.70;12.90;;;;;;;;;;4977121;28;20676;-62
2022/12/12 09:13:07;;;;;;;22.92;12.95;;;;;;;;;;4977846;28;21116;-62
2022/12/12 09:15:35;;;;;;;29.02;13.48;;;;;;;;;;4979587;28;20682;-67
2022/12/12 09:18:01;;;;;;;21.33;12.77;;;;;;;;;;4978314;28;20140;-64
2022/12/12 09:20:27;;;;;;;23.48;12.48;;;;;;;;;;4976729;28;20128;-67
2022/12/12 09:22:53;;;;;;;24.35;12.73;;;;;;;;;;4973043;28;20632;-68
2022/12/12 09:25:20;;;;;;;23.98;13.85;;;;;;;;;;4982626;28;20054;-67
2022/12/12 09:27:47;;;;;;;29.27;13.57;;;;;;;;;;4987000;28;20058;-64
2022/12/12 09:30:13;;;;;;;22.98;11.75;;;;;;;;;;4978926;28;20592;-65
2022/12/12 09:32:40;;;;;;;26.15;13.75;;;;;;;;;;4991126;28;20068;-64
2022/12/12 09:35:07;;;;;;;22.27;12.73;;;;;;;;;;5003119;28;20133;-74
2022/12/12 09:37:33;;;;;;;24.80;12.52;;;;;;;;;;4982930;28;20077;-71
2022/12/12 09:39:59;;;;;;;22.95;11.73;;;;;;;;;;4995614;28;20050;-65
2022/12/12 09:42:28;;;;;;;25.00;12.50;;;;;;;;;;5001235;28;20081;-63
2022/12/12 09:45:04;;;;;;;24.88;11.95;;;;;;;;;;5002410;28;20132;-70
2022/12/12 09:47:42;;;;;;;20.33;12.27;;;;;;;;;;4997791;28;20073;-63
2022/12/12 09:50:31;;;;;;;23.75;13.35;;;;;;;;;;5000989;28;20057;-62
2022/12/12 09:53:01;;;;;;;26.50;12.25;;;;;;;;;;4988940;28;20054;-65
2022/12/12 09:55:49;;;;;;;27.58;13.18;;;;;;;;;;4985468;28;20033;-68
2022/12/12 09:58:25;;;;;;;33.00;13.40;;;;;;;;;;4999893;28;20153;-63
2022/12/12 10:01:20;;;;;;;27.60;13.35;;;;;;;;;;5003855;28;20192;-67
2022/12/12 10:04:25;;;;;;;23.95;12.25;;;;;;;;;;4981038;28;20829;-63
2022/12/12 10:07:07;;;;;;;24.95;12.07;;;;;;;;;;4921376;29;20050;-64
2022/12/12 10:09:40;;;;;;;26.88;10.65;;;;;;;;;;4917233;29;20063;-63
2022/12/12 10:12:12;;;;;;;25.80;12.98;;;;;;;;;;4922495;29;20602;-65
2022/12/12 10:14:50;;;;;;;25.10;12.25;;;;;;;;;;4924315;29;20070;-63
2022/12/12 10:17:20;;;;;;;28.98;13.60;;;;;;;;;;4921128;29;20059;-65
2022/12/12 10:19:50;;;;;;;26.23;11.60;;;;;;;;;;4919388;29;20249;-64
2022/12/12 10:22:33;;;;;;;23.88;11.20;;;;;;;;;;4922405;29;20060;-68
2022/12/12 10:25:33;;;;;;;26.23;12.10;;;;;;;;;;4927103;29;20820;-64
2022/12/12 10:28:12;;;;;;;24.88;12.50;;;;;;;;;;4882044;29;20056;-66
2022/12/12 10:31:07;;;;;;;23.67;11.80;;;;;;;;;;4875258;29;20120;-64
2022/12/12 10:33:50;;;;;;;25.23;12.20;;;;;;;;;;4890277;29;20543;-67
2022/12/12 10:36:35;;;;;;;19.27;11.73;;;;;;;;;;4893651;29;20094;-65
2022/12/12 10:39:22;;;;;;;19.77;11.23;;;;;;;;;;4898359;29;20143;-61
2022/12/12 10:42:00;;;;;;;25.73;12.07;;;;;;;;;;4904043;29;21181;-64
2022/12/12 10:44:26;;;;;;;31.38;12.07;;;;;;;;;;4919525;29;20112;-63
2022/12/12 10:47:09;;;;;;;21.10;11.80;;;;;;;;;;4904469;29;20091;-66
2022/12/12 10:49:36;;;;;;;21.85;12.38;;;;;;;;;;4918253;29;20395;-69
2022/12/12 10:52:10;;;;;;;32.92;12.88;;;;;;;;;;4921278;29;20164;-66
2022/12/12 10:54:46;;;;;;;27.20;12.63;;;;;;;;;;4920755;29;20048;-68
2022/12/12 10:57:18;;;;;;;31.05;13.70;;;;;;;;;;4918936;29;20051;-66
2022/12/12 10:59:50;;;;;;;25.42;12.05;;;;;;;;;;4913811;29;20849;-64
2022/12/12 11:02:24;;;;;;;23.42;12.32;;;;;;;;;;4915343;29;20052;-63
2022/12/12 11:05:07;;;;;;;27.88;12.65;;;;;;;;;;4946090;28;20046;-64
2022/12/12 11:07:39;;;;;;;27.52;13.38;;;;;;;;;;4982944;28;20057;-63
2022/12/12 11:10:35;;;;;;;28.55;12.23;;;;;;;;;;4973918;28;20145;-65
2022/12/12 11:13:10;;;;;;;26.02;12.30;;;;;;;;;;4972963;28;20627;-65
2022/12/12 11:15:44;;;;;;;;;;;;;;;;;;4973917;28;20050;-63
2022/12/12 11:18:15;;;;;;;;;;;;;;;;;;4982020;28;20388;-65
2022/12/12 11:20:46;;;;;;;22.63;11.85;;;;;;;;;;4982793;28;20389;-67
2022/12/12 11:23:20;;;;;;;23.60;12.57;;;;;;;;;;4975651;28;20050;-63
2022/12/12 11:25:55;;;;;;;29.40;12.13;;;;;;;;;;4979717;28;20042;-64
2022/12/12 11:28:23;;;;;;;25.35;12.05;;;;;;;;;;4981009;28;20086;-64
2022/12/12 11:30:54;;;;;;;25.13;11.73;;;;;;;;;;4981596;28;20057;-64
2022/12/12 11:33:32;;;;;;;18.65;11.23;;;;;;;;;;4992528;28;20055;-64
2022/12/12 11:36:00;;;;;;;26.98;12.05;;;;;;;;;;5006039;28;20053;-65
2022/12/12 11:38:37;;;;;;;28.98;12.93;;;;;;;;;;5004130;28;20413;-68
2022/12/12 11:41:10;;;;;;;23.77;13.85;;;;;;;;;;5003768;28;20646;-63
2022/12/12 11:43:45;;;;;;;27.77;14.73;;;;;;;;;;5007446;28;20079;-63
2022/12/12 11:46:14;;;;;;;22.98;11.48;;;;;;;;;;4988808;28;20058;-67
2022/12/12 11:48:42;;;;;;;23.63;11.55;;;;;;;;;;4996625;28;20053;-63
2022/12/12 11:51:09;;;;;;;28.42;12.00;;;;;;;;;;5001676;28;20472;-67
2022/12/12 11:53:38;;;;;;;27.77;12.18;;;;;;;;;;4998371;28;20055;-65
2022/12/12 11:56:07;;;;;;;24.73;12.05;;;;;;;;;;4997321;28;20050;-63
2022/12/12 11:58:45;;;;;;;23.83;11.82;;;;;;;;;;5008036;28;20073;-64
2022/12/12 12:01:25;;;;;;;26.02;12.70;;;;;;;;;;4999860;28;20053;-63
2022/12/12 12:04:12;;;;;;;31.52;12.80;;;;;;;;;;5003881;28;20065;-67
2022/12/12 12:06:57;;;;;;;42.45;13.30;;;;;;;;;;5006847;28;20041;-65
2022/12/12 12:09:32;;;;;;;28.80;12.15;;;;;;;;;;4996742;28;20322;-67
2022/12/12 12:12:00;;;;;;;35.30;13.15;;;;;;;;;;5003095;28;20046;-65
2022/12/12 12:14:34;;;;;;;32.00;13.48;;;;;;;;;;5005058;28;20116;-67
2022/12/12 12:17:28;;;;;;;30.48;13.80;;;;;;;;;;4997620;28;20050;-64
2022/12/12 12:20:20;;;;;;;35.55;14.65;;;;;;;;;;5002457;28;20399;-67
2022/12/12 12:22:45;;;;;;;26.38;12.43;;;;;;;;;;4993314;28;20110;-63
2022/12/12 12:25:29;;;;;;;25.30;12.15;;;;;;;;;;4996133;28;20046;-67
2022/12/12 12:28:10;;;;;;;29.83;12.67;;;;;;;;;;4999491;28;20528;-72
2022/12/12 12:30:58;;;;;;;27.98;12.18;;;;;;;;;;4999218;28;20326;-69
2022/12/12 12:33:38;;;;;;;26.23;12.60;;;;;;;;;;5001307;28;20053;-69
2022/12/12 12:36:17;;;;;;;21.83;11.45;;;;;;;;;;4975786;28;20567;-62
2022/12/12 12:38:59;;;;;;;24.15;11.95;;;;;;;;;;5005739;28;20068;-63
2022/12/12 12:41:41;;;;;;;31.77;12.48;;;;;;;;;;5003801;28;20061;-64
2022/12/12 12:44:39;;;;;;;29.25;13.75;;;;;;;;;;4996447;28;20053;-63
2022/12/12 12:47:20;;;;;;;27.95;13.65;;;;;;;;;;4978287;28;20504;-66
2022/12/12 12:49:55;;;;;;;34.30;13.60;;;;;;;;;;4993914;28;20510;-67
2022/12/12 12:52:52;;;;;;;33.20;14.25;;;;;;;;;;5000123;28;20041;-62
2022/12/12 12:55:25;;;;;;;28.27;14.23;;;;;;;;;;5001433;28;20474;-65
2022/12/12 12:57:51;;;;;;;28.13;14.02;;;;;;;;;;5001169;28;20477;-65
2022/12/12 13:00:23;;;;;;;32.65;15.30;;;;;;;;;;5002593;28;20042;-66
2022/12/12 13:02:52;;;;;;;36.22;14.25;;;;;;;;;;4998545;28;20054;-65
2022/12/12 13:05:53;;;;;;;32.13;14.70;;;;;;;;;;5004718;28;20065;-63
2022/12/12 13:08:30;;;;;;;30.80;15.02;;;;;;;;;;5001531;28;20083;-63
2022/12/12 13:11:02;;;;;;;32.80;15.00;;;;;;;;;;4997433;28;20154;-68
2022/12/12 13:13:31;;;;;;;29.27;14.75;;;;;;;;;;5002364;28;20043;-66
2022/12/12 13:16:17;;;;;;;39.60;14.90;;;;;;;;;;5001479;28;20551;-65
2022/12/12 13:18:49;;;;;;;30.25;14.55;;;;;;;;;;4996043;28;20107;-65
2022/12/12 13:21:14;;;;;;;30.60;13.48;;;;;;;;;;4998563;28;20066;-65
2022/12/12 13:24:11;;;;;;;28.40;11.65;;;;;;;;;;4993611;28;20413;-66
2022/12/12 13:26:47;;;;;;;28.10;11.45;;;;;;;;;;4986943;28;20080;-64
2022/12/12 13:29:13;;;;;;;23.80;10.85;;;;;;;;;;4999017;28;20050;-64
2022/12/12 13:32:14;;;;;;;23.98;10.90;;;;;;;;;;5004150;28;20073;-64
2022/12/12 13:34:45;;;;;;;23.15;10.68;;;;;;;;;;4987467;28;20057;-65
2022/12/12 13:37:16;;;;;;;26.17;11.02;;;;;;;;;;4997659;28;20162;-65
2022/12/12 13:39:42;;;;;;;21.25;10.10;;;;;;;;;;4993972;28;20046;-64
2022/12/12 13:42:10;;;;;;;24.67;9.25;;;;;;;;;;5000036;28;20064;-65
2022/12/12 13:44:46;;;;;;;21.33;10.75;;;;;;;;;;4997501;28;20049;-63
2022/12/12 13:47:20;;;;;;;23.65;11.60;;;;;;;;;;5002465;28;20050;-65
2022/12/12 13:50:08;;;;;;;25.83;11.15;;;;;;;;;;4998973;28;20058;-67
2022/12/12 13:52:41;;;;;;;26.77;12.27;;;;;;;;;;4999150;28;22206;-66
2022/12/12 13:55:11;;;;;;;30.40;11.07;;;;;;;;;;5005898;28;20050;-65
2022/12/12 13:57:55;;;;;;;26.85;11.43;;;;;;;;;;4999302;28;20050;-65
2022/12/12 14:00:27;;;;;;;22.20;11.70;;;;;;;;;;4998566;28;20050;-66
2022/12/12 14:03:01;;;;;;;32.13;12.07;;;;;;;;;;4972837;28;20050;-65
2022/12/12 14:05:31;;;;;;;25.15;12.05;;;;;;;;;;4999649;28;20132;-65
2022/12/12 14:08:09;;;;;;;28.88;12.98;;;;;;;;;;4997632;28;20663;-64
2022/12/12 14:10:42;;;;;;;24.23;10.15;;;;;;;;;;5001389;28;20057;-65
2022/12/12 14:13:20;;;;;;;22.60;10.55;;;;;;;;;;5001302;28;20048;-67
2022/12/12 14:16:05;;;;;;;27.17;9.98;;;;;;;;;;5004482;28;20050;-62
2022/12/12 14:18:52;;;;;;;17.00;8.70;;;;;;;;;;5000133;28;20133;-67
2022/12/12 14:21:34;;;;;;;25.00;8.82;;;;;;;;;;4993766;28;20050;-64
2022/12/12 14:24:32;;;;;;;21.92;10.00;;;;;;;;;;4994472;28;20046;-64
2022/12/12 14:27:05;;;;;;;19.52;8.05;;;;;;;;;;4999799;28;20056;-70
2022/12/12 14:29:34;;;;;;;19.80;7.03;;;;;;;;;;4997247;28;20156;-68
2022/12/12 14:32:12;;;;;;;19.05;6.22;;;;;;;;;;4979533;28;20062;-65
2022/12/12 14:35:03;;;;;;;15.20;5.78;;;;;;;;;;4995516;28;20087;-66
2022/12/12 14:37:52;;;;;;;13.80;5.10;;;;;;;;;;4999948;28;20421;-67
2022/12/12 14:40:20;;;;;;;15.60;4.63;;;;;;;;;;4999813;28;20050;-67
2022/12/12 14:42:52;;;;;;;16.42;4.50;;;;;;;;;;5006789;28;20097;-64
2022/12/12 14:45:27;;;;;;;18.13;4.60;;;;;;;;;;4999538;28;20072;-63
2022/12/12 14:48:15;;;;;;;16.30;4.35;;;;;;;;;;5002333;28;20057;-64
2022/12/12 14:51:06;;;;;;;16.27;4.68;;;;;;;;;;4993673;28;20493;-65
2022/12/12 14:53:46;;;;;;;17.92;4.22;;;;;;;;;;5001236;28;20716;-63
2022/12/12 14:56:29;;;;;;;16.40;4.00;;;;;;;;;;4999085;28;20132;-65
2022/12/12 14:59:04;;;;;;;14.88;3.83;;;;;;;;;;4992039;28;20054;-66
2022/12/12 15:01:33;;;;;;;;;;;;;;;;;;5007359;28;20058;-65
2022/12/12 15:04:03;;;;;;;8.88;3.65;;;;;;;;;;5000501;28;19932;-63
2022/12/12 15:06:31;;;;;;;12.55;3.25;;;;;;;;;;5003066;28;20046;-65
2022/12/12 15:09:21;;;;;;;11.98;3.15;;;;;;;;;;5001999;28;20057;-66